Nearby METAR Reports

 

EFHK - Helsinki/Vantaa, Finland
Distance from station: IKO 45km
Päivitetty: 22/02/2018 14:20
Few Clouds
Few Clouds
 Tuulen suunta LLO
Tuuli: LLO 7 km/h
Lämpötila: -8°C
Wind Chill: -12°C
Kastepiste: -15°C
Kosteus: 58%
Ilmanpaine: 1030 hPa
Clouds: Few Clouds
Visibility: 10 km
Cloud details: Few Clouds 914 m
2018/02/22 12:20 EFHK 221220Z 24004KT 190V270 9999 FEW030 M08/M15 Q1030 NOSIG
EFHF - Helsinki/Malmi, Finland
Distance from station: IKO 47km
Päivitetty: 06/03/2017 17:50
NOT Current
Selkeätä
Selkeätä
 Tuulen suunta KO
Tuuli: KO 11 km/h
Lämpötila: -2°C
Wind Chill: -6°C
Kastepiste: -11°C
Kosteus: 51%
Ilmanpaine: 1021 hPa
Yhteenveto: Selkeätä
Visibility: greater than 10 km
2017/03/06 15:50 EFHF 061550Z 04006KT 330V100 CAVOK M02/M11 Q1021
 
EETN - Tallinn, Estonia
Distance from station: EKA 89km
Päivitetty: 22/02/2018 14:20
Enimmäkseen pilvistä
Enimmäkseen pilvistä
 Tuulen suunta LO
Tuuli: LO 9 km/h
Lämpötila: -7°C
Wind Chill: -12°C
Kastepiste: -11°C
Kosteus: 73%
Ilmanpaine: 1030 hPa
Clouds: Enimmäkseen pilvistä
Visibility: 10 km
Cloud details: Enimmäkseen pilvistä 640 m
2018/02/22 12:20 EETN 221220Z 23005KT 190V250 9999 BKN021 M07/M11 Q1030 R08/420295 NOSIG
EFTU - Turku/Abo, Finland
Distance from station: LLU 115km
Päivitetty: 22/02/2018 14:20
Light snow, Puolipilvistä
Light snow, Puolipilvistä
 Tuulen suunta varies
Tuuli: varies 4 km/h
Lämpötila: -6°C
Kastepiste: -10°C
Kosteus: 74%
Ilmanpaine: 1029 hPa
Yhteenveto: Light Snow
Clouds: Puolipilvistä
Visibility: 10 km
Cloud details: Few Clouds 701 m
Puolipilvistä 823 m
2018/02/22 12:20 EFTU 221220Z AUTO VRB02KT 9999 -SN FEW023/// SCT027/// M06/M10 Q1029
 
EFTP - Tampere/Pirkkala, Finland
Distance from station: PLU 145km
Päivitetty: 22/02/2018 14:20
Selkeätä
Selkeätä
 Tuulen suunta ELO
Tuuli: ELO 11 km/h
Lämpötila: -8°C
Wind Chill: -13°C
Kastepiste: -15°C
Kosteus: 58%
Ilmanpaine: 1029 hPa
Yhteenveto: Selkeätä
Visibility: greater than 10 km
2018/02/22 12:20 EFTP 221220Z 20006KT CAVOK M08/M15 Q1029
EEKA - Kardla, Estonia
Distance from station: ELO 151km
Päivitetty: 22/02/2018 13:50
Few Clouds
Few Clouds
 Tuulen suunta EKA
Tuuli: EKA 11 km/h
Lämpötila: -4°C
Wind Chill: -8°C
Kastepiste: -10°C
Kosteus: 63%
Ilmanpaine: 1031 hPa
Clouds: Few Clouds
Visibility: 10 km
Cloud details: Few Clouds 701 m
2018/02/22 11:50 EEKA 221150Z 15006KT 9999 FEW023 M04/M10 Q1031
 
EFUT - Utti (fin-Afb), Finland
Distance from station: IKO 169km
Päivitetty: 22/02/2018 14:20
Selkeätä
Selkeätä
 Tuulen suunta L
Tuuli: L 9 km/h
Lämpötila: -9°C
Wind Chill: -14°C
Kastepiste: -16°C
Kosteus: 57%
Ilmanpaine: 1029 hPa
Yhteenveto: Selkeätä
Visibility: greater than 10 km
2018/02/22 12:20 EFUT 221220Z 27005KT 240V310 CAVOK M09/M16 Q1029
EFHA - Halli (fin-Afb), Finland
Distance from station: P 192km
Päivitetty: 22/02/2018 14:20
Selkeätä
Selkeätä
 Tuulen suunta LLO
Tuuli: LLO 9 km/h
Lämpötila: -8°C
Wind Chill: -12°C
Kastepiste: -15°C
Kosteus: 58%
Ilmanpaine: 1028 hPa
Yhteenveto: Selkeätä
Visibility: greater than 10 km
2018/02/22 12:20 EFHA 221220Z 25005KT CAVOK M08/M15 Q1028
 
EEPU - Parnu, Estonia
Distance from station: E 193km
Päivitetty: 22/02/2018 13:50
Enimmäkseen pilvistä
Enimmäkseen pilvistä
 Tuulen suunta LO
Tuuli: LO 13 km/h
Lämpötila: -9°C
Wind Chill: -15°C
Kastepiste: -11°C
Kosteus: 86%
Ilmanpaine: 1031 hPa
Clouds: Enimmäkseen pilvistä
Visibility: 10 km
Cloud details: Enimmäkseen pilvistä 671 m
2018/02/22 11:50 EEPU 221150Z 22007KT 9999 BKN022 M09/M11 Q1031
EFPO - Pori (mil/Civ), Finland
Distance from station: LU 197km
Päivitetty: 22/02/2018 14:20
Selkeätä
Selkeätä
 Tuulen suunta KA
Tuuli: KA 13 km/h
Lämpötila: -6°C
Wind Chill: -12°C
Kastepiste: -10°C
Kosteus: 74%
Ilmanpaine: 1029 hPa
Yhteenveto: Selkeätä
Visibility: greater than 10 km
2018/02/22 12:20 EFPO 221220Z AUTO 14007KT CAVOK M06/M10 Q1029